Time;durP1;ratioP1;P1;durP2;ratioP2;P2;SDS_P1;SDS_P2;PMS_P1;PMS_P2;Temp;Humidity;BMP_temperature;BMP_pressure;BME280_temperature;BME280_humidity;BME280_pressure;Samples;Min_cycle;Max_cycle;Signal;HPM_P1;HPM_P2
2021/07/21 00:00:50;;;;;;;19.83;18.03;;;24.60;93.10;;;;;;3594742;40;20609;-61
2021/07/21 00:03:19;;;;;;;20.03;18.33;;;24.60;93.50;;;;;;3585707;40;20474;-61
2021/07/21 00:05:46;;;;;;;20.37;18.67;;;24.60;93.20;;;;;;3585976;40;20466;-60
2021/07/21 00:08:14;;;;;;;19.73;18.13;;;24.60;93.20;;;;;;3595188;40;20473;-61
2021/07/21 00:10:41;;;;;;;18.53;17.03;;;24.60;93.20;;;;;;3594743;40;20470;-61
2021/07/21 00:16:07;;;;;;;19.33;17.53;;;24.60;93.10;;;;;;3591948;40;20485;-61
2021/07/21 00:18:45;;;;;;;17.97;16.57;;;24.60;93.20;;;;;;3585547;40;20506;-60
2021/07/21 00:21:13;;;;;;;18.97;17.47;;;24.60;93.20;;;;;;3594646;40;20497;-61
2021/07/21 00:23:42;;;;;;;18.30;16.93;;;24.60;93.20;;;;;;3594953;40;20470;-61
2021/07/21 00:26:14;;;;;;;18.87;17.40;;;24.60;93.20;;;;;;3586180;40;20450;-61
2021/07/21 00:28:41;;;;;;;18.77;17.23;;;24.60;93.20;;;;;;3594029;40;21026;-61
2021/07/21 00:31:16;;;;;;;18.93;17.43;;;24.60;93.20;;;;;;3594495;40;20767;-61
2021/07/21 00:33:45;;;;;;;19.23;17.67;;;24.60;93.20;;;;;;3594777;40;20446;-61
2021/07/21 00:36:12;;;;;;;19.23;17.67;;;24.60;93.20;;;;;;3594489;40;20472;-61
2021/07/21 00:38:40;;;;;;;18.87;17.27;;;24.60;93.20;;;;;;3594745;40;20819;-61
2021/07/21 00:41:07;;;;;;;20.40;18.80;;;24.60;93.20;;;;;;3594380;40;20477;-61
2021/07/21 00:43:44;;;;;;;18.60;16.97;;;24.60;93.20;;;;;;3594350;40;20449;-61
2021/07/21 00:46:11;;;;;;;19.50;17.90;;;24.60;93.20;;;;;;3593984;40;20462;-61
2021/07/21 00:48:39;;;;;;;19.00;17.40;;;24.60;93.20;;;;;;3585285;40;20689;-61
2021/07/21 00:51:08;;;;;;;18.10;16.70;;;24.60;93.20;;;;;;3593844;40;20502;-61
2021/07/21 00:53:42;;;;;;;19.40;17.70;;;24.60;93.20;;;;;;3594753;40;20470;-61
2021/07/21 00:56:15;;;;;;;18.63;17.23;;;24.50;93.20;;;;;;3593683;40;20682;-61
2021/07/21 00:58:43;;;;;;;19.47;17.97;;;24.60;93.20;;;;;;3594339;40;20454;-61
2021/07/21 01:01:10;;;;;;;19.83;18.27;;;24.60;93.20;;;;;;3585283;40;20473;-61
2021/07/21 01:03:38;;;;;;;19.13;17.53;;;24.60;93.20;;;;;;3594987;40;20523;-61
2021/07/21 01:06:06;;;;;;;17.67;16.30;;;24.50;93.10;;;;;;3594091;40;20469;-61
2021/07/21 01:08:35;;;;;;;18.70;17.27;;;24.50;93.20;;;;;;3585472;40;20493;-61
2021/07/21 01:11:18;;;;;;;19.33;17.63;;;24.50;93.20;;;;;;3594496;40;20461;-61
2021/07/21 01:13:52;;;;;;;20.00;18.47;;;24.60;93.20;;;;;;3585064;40;20697;-60
2021/07/21 01:16:25;;;;;;;19.10;17.63;;;24.60;93.20;;;;;;3594722;40;20461;-60
2021/07/21 01:18:58;;;;;;;19.63;18.13;;;24.50;93.20;;;;;;3585843;40;20490;-61
2021/07/21 01:22:05;;;;;;;20.70;19.10;;;24.50;93.20;;;;;;3585020;40;20473;-60
2021/07/21 01:24:52;;;;;;;21.03;19.23;;;24.50;93.20;;;;;;3594788;40;20450;-61
2021/07/21 01:27:27;;;;;;;19.60;17.97;;;24.60;93.30;;;;;;3585202;40;20441;-61
2021/07/21 01:29:58;;;;;;;18.97;17.37;;;24.60;93.20;;;;;;3585533;40;20460;-61
2021/07/21 01:32:31;;;;;;;20.00;18.30;;;24.50;93.20;;;;;;3593979;40;20470;-61
2021/07/21 01:35:10;;;;;;;18.77;17.17;;;24.50;93.20;;;;;;3576699;40;20485;-61
2021/07/21 01:37:40;;;;;;;20.03;18.43;;;24.50;93.20;;;;;;3594589;40;20520;-61
2021/07/21 01:40:14;;;;;;;19.13;17.53;;;24.50;93.30;;;;;;3585344;40;20458;-61
2021/07/21 01:42:44;;;;;;;19.13;17.63;;;24.50;93.30;;;;;;3589173;40;20474;-61
2021/07/21 01:45:18;;;;;;;19.00;17.47;;;24.50;93.20;;;;;;3575075;40;20482;-61
2021/07/21 01:47:47;;;;;;;18.17;16.77;;;24.50;93.30;;;;;;3594019;40;20462;-61
2021/07/21 01:50:18;;;;;;;18.13;16.73;;;24.50;93.20;;;;;;3584688;40;20482;-61
2021/07/21 01:52:48;;;;;;;19.13;17.63;;;24.50;93.20;;;;;;3593165;40;20462;-61
2021/07/21 01:55:22;;;;;;;19.37;17.87;;;24.50;93.20;;;;;;3593642;40;20450;-61
2021/07/21 01:57:52;;;;;;;19.13;17.60;;;24.50;93.20;;;;;;3593662;40;20461;-61
2021/07/21 02:00:43;;;;;;;20.20;18.40;;;24.50;93.20;;;;;;3586795;40;20482;-61
2021/07/21 02:03:11;;;;;;;19.43;17.97;;;24.50;93.20;;;;;;3592711;40;20535;-60
2021/07/21 02:06:01;;;;;;;17.40;16.03;;;24.50;93.20;;;;;;3584798;40;21183;-61
2021/07/21 02:08:30;;;;;;;18.87;17.37;;;24.50;93.20;;;;;;3584732;40;20454;-61
2021/07/21 02:11:13;;;;;;;19.70;18.20;;;24.50;93.20;;;;;;3584621;40;20462;-61
2021/07/21 02:13:43;;;;;;;18.87;17.27;;;24.50;93.30;;;;;;3576384;40;20855;-61
2021/07/21 02:16:21;;;;;;;19.33;17.83;;;24.50;93.20;;;;;;3576233;40;20513;-61
2021/07/21 02:18:52;;;;;;;18.47;16.87;;;24.50;93.20;;;;;;3594507;40;20470;-61
2021/07/21 02:21:21;;;;;;;18.13;16.80;;;24.50;93.30;;;;;;3584076;40;21002;-60
2021/07/21 02:23:53;;;;;;;18.63;17.13;;;24.50;93.30;;;;;;3584372;40;20462;-61
2021/07/21 02:26:47;;;;;;;18.47;17.00;;;24.50;93.30;;;;;;3584496;40;20486;-62
2021/07/21 02:29:19;;;;;;;19.83;18.13;;;24.50;93.30;;;;;;3593302;40;20491;-61
2021/07/21 02:32:04;;;;;;;19.60;18.00;;;24.50;93.30;;;;;;3593730;40;20447;-61
2021/07/21 02:34:32;;;;;;;19.53;18.00;;;24.50;93.30;;;;;;3593259;40;20467;-61
2021/07/21 02:37:06;;;;;;;19.73;18.13;;;24.50;93.30;;;;;;3583917;40;20462;-61
2021/07/21 02:39:47;;;;;;;18.90;17.23;;;24.50;93.20;;;;;;3592864;40;20481;-60
2021/07/21 02:42:15;;;;;;;19.63;18.13;;;24.50;93.20;;;;;;3593440;40;20476;-61
2021/07/21 02:44:49;;;;;;;18.47;17.00;;;24.50;93.30;;;;;;3593870;40;20451;-61
2021/07/21 02:47:18;;;;;;;17.80;16.40;;;24.50;93.20;;;;;;3583485;40;20457;-61
2021/07/21 02:49:50;;;;;;;18.93;17.33;;;24.50;93.20;;;;;;3584253;40;20470;-61
2021/07/21 02:52:25;;;;;;;18.87;17.37;;;24.50;93.30;;;;;;3584362;40;20478;-61
2021/07/21 02:55:05;;;;;;;19.90;18.30;;;24.50;93.30;;;;;;3583725;40;20482;-61
2021/07/21 02:57:41;;;;;;;19.63;18.13;;;24.50;93.30;;;;;;3593512;40;20450;-61
2021/07/21 03:00:15;;;;;;;18.77;17.20;;;24.50;93.20;;;;;;3593566;40;20458;-61
2021/07/21 03:02:52;;;;;;;18.33;16.83;;;24.50;93.20;;;;;;3575213;40;20458;-61
2021/07/21 03:05:24;;;;;;;17.73;16.33;;;24.50;93.20;;;;;;3583761;40;20449;-61
2021/07/21 03:08:04;;;;;;;18.43;16.83;;;24.50;93.30;;;;;;3595061;40;20462;-61
2021/07/21 03:10:34;;;;;;;19.37;17.80;;;24.50;93.20;;;;;;3594005;40;20462;-61
2021/07/21 03:13:29;;;;;;;19.10;17.40;;;24.50;93.10;;;;;;3594281;40;20466;-61
2021/07/21 03:16:02;;;;;;;19.17;17.60;;;24.50;93.10;;;;;;3585277;40;20893;-61
2021/07/21 03:18:40;;;;;;;19.77;18.27;;;24.50;93.20;;;;;;3594270;40;20482;-61
2021/07/21 03:21:10;;;;;;;18.57;17.13;;;24.50;93.10;;;;;;3594388;40;20478;-61
2021/07/21 03:23:44;;;;;;;21.50;19.73;;;24.50;93.20;;;;;;3585317;40;20529;-60
2021/07/21 03:26:44;;;;;;;20.40;18.70;;;24.50;93.20;;;;;;3594553;40;20476;-60
2021/07/21 03:29:15;;;;;;;20.37;18.67;;;24.50;93.20;;;;;;3593921;40;20445;-61
2021/07/21 03:31:47;;;;;;;19.97;18.40;;;24.50;93.20;;;;;;3585534;40;20462;-61
2021/07/21 03:34:17;;;;;;;20.17;18.57;;;24.50;93.30;;;;;;3594721;40;20474;-61
2021/07/21 03:36:54;;;;;;;19.37;17.50;;;24.50;93.20;;;;;;3585906;40;20448;-61
2021/07/21 03:39:25;;;;;;;19.67;18.13;;;24.40;93.10;;;;;;3594344;40;20551;-59
2021/07/21 03:42:14;;;;;;;20.30;18.70;;;24.50;93.10;;;;;;3594470;40;20481;-61
2021/07/21 03:44:43;;;;;;;20.33;18.50;;;24.50;93.20;;;;;;3583288;40;20469;-61
2021/07/21 03:47:15;;;;;;;20.50;18.80;;;24.50;93.20;;;;;;3584928;40;20462;-61
2021/07/21 03:49:43;;;;;;;19.50;17.97;;;24.50;93.20;;;;;;3594487;40;20560;-61
2021/07/21 03:52:15;;;;;;;19.73;18.13;;;24.50;93.30;;;;;;3585282;40;20482;-61
2021/07/21 03:55:05;;;;;;;17.67;16.27;;;24.40;93.20;;;;;;3594265;40;20466;-61
2021/07/21 03:57:46;;;;;;;19.27;17.70;;;24.40;93.10;;;;;;3584204;40;20458;-59
2021/07/21 04:00:17;;;;;;;20.37;18.77;;;24.40;93.10;;;;;;3593323;40;20455;-61
2021/07/21 04:02:58;;;;;;;19.40;18.00;;;24.50;93.20;;;;;;3594013;40;20523;-61
2021/07/21 04:05:38;;;;;;;20.67;19.07;;;24.40;93.20;;;;;;3584666;40;20473;-61
2021/07/21 04:08:15;;;;;;;20.47;18.97;;;24.40;93.20;;;;;;3593588;40;20994;-61
2021/07/21 04:10:43;;;;;;;20.57;19.03;;;24.50;93.30;;;;;;3584328;40;20466;-61
2021/07/21 04:13:11;;;;;;;22.53;20.70;;;24.40;93.20;;;;;;3584462;40;20450;-61
2021/07/21 04:15:58;;;;;;;20.70;19.17;;;24.40;93.20;;;;;;3593663;40;20465;-61
2021/07/21 04:18:32;;;;;;;21.03;19.33;;;24.50;93.10;;;;;;3593458;40;20458;-60
2021/07/21 04:21:01;;;;;;;21.10;19.60;;;24.50;93.20;;;;;;3593456;40;20455;-61
2021/07/21 04:23:32;;;;;;;20.50;19.00;;;24.50;93.30;;;;;;3592237;40;20486;-61
2021/07/21 04:26:02;;;;;;;20.17;18.70;;;24.50;93.20;;;;;;3583806;40;20463;-61
2021/07/21 04:28:31;;;;;;;20.97;19.20;;;24.50;93.20;;;;;;3592335;40;20498;-61
2021/07/21 04:31:03;;;;;;;20.10;18.50;;;24.40;93.20;;;;;;3582600;40;20520;-61
2021/07/21 04:33:35;;;;;;;22.43;20.53;;;24.40;93.10;;;;;;3591867;40;20467;-61
2021/07/21 04:36:05;;;;;;;21.00;19.30;;;24.40;93.10;;;;;;3592016;40;20878;-61
2021/07/21 04:38:36;;;;;;;20.00;18.63;;;24.40;92.90;;;;;;3590457;40;20489;-61
2021/07/21 04:41:07;;;;;;;20.73;19.20;;;24.40;92.70;;;;;;3592004;40;20458;-61
2021/07/21 04:44:02;;;;;;;19.70;18.13;;;24.40;92.30;;;;;;3589784;40;20494;-61
2021/07/21 04:46:53;;;;;;;21.27;19.67;;;24.40;92.00;;;;;;3582940;40;20635;-60
2021/07/21 04:49:23;;;;;;;18.90;17.43;;;24.40;91.80;;;;;;3582576;40;20454;-61
2021/07/21 04:51:55;;;;;;;20.10;18.60;;;24.40;91.70;;;;;;3582937;40;20473;-60
2021/07/21 04:54:29;;;;;;;21.30;19.53;;;24.40;91.50;;;;;;3591241;40;20529;-61
2021/07/21 04:56:58;;;;;;;18.63;17.33;;;24.40;91.40;;;;;;3573847;40;20463;-61
2021/07/21 04:59:33;;;;;;;18.67;17.47;;;24.40;91.40;;;;;;3582179;40;20474;-61
2021/07/21 05:02:02;;;;;;;19.70;18.30;;;24.40;91.30;;;;;;3581965;40;20493;-61
2021/07/21 05:04:31;;;;;;;22.03;19.70;;;24.40;91.30;;;;;;3591261;40;20478;-61
2021/07/21 05:07:12;;;;;;;19.80;18.13;;;24.40;91.10;;;;;;3581148;40;20450;-61
2021/07/21 05:09:48;;;;;;;20.43;18.93;;;24.40;91.00;;;;;;3590241;40;20624;-61
2021/07/21 05:12:16;;;;;;;21.63;19.90;;;24.40;91.00;;;;;;3589766;40;20454;-61
2021/07/21 05:14:50;;;;;;;20.20;18.57;;;24.40;90.90;;;;;;3572303;40;20960;-57
2021/07/21 05:17:36;;;;;;;19.43;18.03;;;24.40;91.00;;;;;;3580963;40;20461;-55
2021/07/21 05:20:12;;;;;;;20.90;19.20;;;24.40;90.90;;;;;;3579778;40;21130;-57
2021/07/21 05:23:04;;;;;;;19.67;18.17;;;24.40;91.00;;;;;;3574701;40;20565;-57
2021/07/21 05:25:44;;;;;;;19.23;17.80;;;24.40;90.90;;;;;;3568832;40;20462;-56
2021/07/21 05:28:37;;;;;;;19.77;18.20;;;24.40;90.90;;;;;;3578620;40;20462;-56
2021/07/21 05:31:12;;;;;;;19.10;17.50;;;24.50;91.00;;;;;;3568485;40;20591;-57
2021/07/21 05:33:59;;;;;;;19.00;17.40;;;24.40;90.90;;;;;;3573834;40;20704;-53
2021/07/21 05:36:35;;;;;;;20.90;18.73;;;24.40;90.90;;;;;;3566125;40;20767;-56
2021/07/21 05:39:05;;;;;;;20.27;18.30;;;24.50;91.10;;;;;;3566123;40;20470;-57
2021/07/21 05:41:34;;;;;;;19.80;18.10;;;24.40;91.00;;;;;;3574493;40;20451;-54
2021/07/21 05:44:02;;;;;;;17.93;16.80;;;24.50;91.10;;;;;;3567949;40;20489;-57
2021/07/21 05:46:29;;;;;;;20.03;18.20;;;24.40;91.00;;;;;;3577007;40;20465;-57
2021/07/21 05:48:57;;;;;;;19.40;17.80;;;24.40;91.10;;;;;;3567915;40;20868;-57
2021/07/21 05:51:37;;;;;;;19.60;17.73;;;24.40;91.10;;;;;;3574222;40;20470;-57
2021/07/21 05:54:20;;;;;;;19.97;18.20;;;24.40;91.10;;;;;;3574557;40;20698;-57
2021/07/21 05:56:48;;;;;;;20.33;18.73;;;24.40;91.10;;;;;;3574532;40;20748;-57
2021/07/21 05:59:25;;;;;;;18.77;17.47;;;24.40;91.10;;;;;;3560896;40;20494;-57
2021/07/21 06:01:55;;;;;;;18.07;16.73;;;24.40;91.10;;;;;;3567943;40;20460;-57
2021/07/21 06:04:24;;;;;;;18.90;17.40;;;24.40;91.00;;;;;;3571029;40;20801;-54
2021/07/21 06:07:11;;;;;;;19.17;17.70;;;24.40;91.00;;;;;;3565107;40;20485;-54
2021/07/21 06:09:57;;;;;;;18.90;16.67;;;24.40;91.00;;;;;;3564472;40;20563;-54
2021/07/21 06:12:30;;;;;;;18.80;17.30;;;24.40;90.90;;;;;;3568734;40;20579;-57
2021/07/21 06:15:01;;;;;;;19.47;17.90;;;24.40;91.10;;;;;;3565069;40;20858;-56
2021/07/21 06:17:29;;;;;;;20.60;18.77;;;24.40;91.40;;;;;;3567068;40;20487;-57
2021/07/21 06:20:07;;;;;;;18.70;17.20;;;24.40;91.20;;;;;;3568945;40;21307;-56
2021/07/21 06:22:40;;;;;;;18.60;17.20;;;24.20;90.60;;;;;;3568634;40;20467;-56
2021/07/21 06:25:19;;;;;;;18.80;17.40;;;24.00;90.80;;;;;;3570152;40;20458;-57
2021/07/21 06:28:19;;;;;;;17.97;16.57;;;23.80;91.00;;;;;;3569517;40;20474;-56
2021/07/21 06:30:46;;;;;;;19.47;17.97;;;23.60;91.30;;;;;;3561683;40;20575;-57
2021/07/21 06:33:23;;;;;;;19.60;18.00;;;23.50;91.60;;;;;;3577195;39;20549;-56
2021/07/21 06:35:51;;;;;;;20.30;18.20;;;23.40;91.80;;;;;;3579889;39;20458;-56
2021/07/21 06:38:22;;;;;;;19.60;17.73;;;23.30;92.00;;;;;;3587890;39;20632;-55
2021/07/21 06:41:04;;;;;;;17.80;16.50;;;23.30;92.20;;;;;;3583385;39;20928;-56
2021/07/21 06:43:41;;;;;;;18.60;16.83;;;23.30;92.20;;;;;;3579176;40;20554;-56
2021/07/21 06:46:19;;;;;;;19.67;18.07;;;23.30;92.30;;;;;;3583121;39;20478;-56
2021/07/21 06:48:52;;;;;;;17.97;16.73;;;23.30;92.40;;;;;;3588953;39;20969;-56
2021/07/21 06:51:25;;;;;;;18.80;17.40;;;23.30;92.50;;;;;;3574414;39;20469;-56
2021/07/21 06:53:54;;;;;;;22.13;20.23;;;23.30;92.70;;;;;;3578607;40;20445;-56
2021/07/21 06:56:26;;;;;;;21.43;19.40;;;23.30;92.60;;;;;;3576273;40;20586;-56
2021/07/21 06:59:14;;;;;;;18.73;17.07;;;23.30;92.70;;;;;;3582278;39;20955;-56
2021/07/21 07:01:42;;;;;;;20.03;18.37;;;23.20;92.80;;;;;;3599003;39;20463;-57
2021/07/21 07:04:29;;;;;;;18.53;17.23;;;23.20;92.80;;;;;;3602248;39;20946;-56
2021/07/21 07:07:28;;;;;;;19.37;17.70;;;23.10;92.90;;;;;;3587151;39;20559;-55
2021/07/21 07:10:18;;;;;;;18.00;16.53;;;23.10;93.00;;;;;;3580495;39;20562;-57
2021/07/21 07:12:48;;;;;;;18.03;16.73;;;23.30;93.20;;;;;;3585140;39;20461;-56
2021/07/21 07:15:16;;;;;;;18.40;16.87;;;23.30;93.00;;;;;;3576743;39;20477;-56
2021/07/21 07:17:46;;;;;;;17.50;16.20;;;23.30;92.80;;;;;;3581678;39;20727;-57
2021/07/21 07:20:13;;;;;;;19.40;18.00;;;23.30;93.10;;;;;;3584508;39;20476;-57
2021/07/21 07:22:41;;;;;;;17.70;16.40;;;23.30;93.10;;;;;;3582521;39;20799;-56
2021/07/21 07:25:09;;;;;;;19.00;17.60;;;23.30;93.20;;;;;;3590327;39;20440;-56
2021/07/21 07:27:38;;;;;;;18.27;16.97;;;23.30;93.30;;;;;;3589881;39;20490;-57
2021/07/21 07:30:09;;;;;;;18.57;17.23;;;23.40;93.10;;;;;;3590181;39;20483;-57
2021/07/21 07:32:37;;;;;;;18.27;17.03;;;23.60;93.10;;;;;;3591859;39;20471;-56
2021/07/21 07:35:04;;;;;;;20.27;18.73;;;23.60;93.00;;;;;;3585216;39;20516;-57
2021/07/21 07:37:33;;;;;;;18.40;16.83;;;23.60;93.00;;;;;;3580310;39;20461;-58
2021/07/21 07:40:03;;;;;;;18.97;17.50;;;23.80;93.00;;;;;;3579471;39;20457;-57
2021/07/21 07:42:30;;;;;;;20.17;18.67;;;23.80;92.90;;;;;;3587142;39;20906;-56
2021/07/21 07:45:03;;;;;;;18.27;17.17;;;23.80;92.80;;;;;;3588195;39;20492;-57
2021/07/21 07:47:32;;;;;;;20.87;19.10;;;23.90;92.60;;;;;;3587677;39;20572;-55
2021/07/21 07:50:01;;;;;;;18.53;17.13;;;23.90;92.60;;;;;;3589271;39;20485;-55
2021/07/21 07:52:28;;;;;;;19.07;17.47;;;23.90;92.40;;;;;;3578904;39;20453;-56
2021/07/21 07:54:55;;;;;;;18.20;17.00;;;24.00;92.50;;;;;;3578339;40;20457;-55
2021/07/21 07:57:22;;;;;;;18.63;17.23;;;24.00;92.40;;;;;;3588932;39;20557;-53
2021/07/21 07:59:50;;;;;;;18.77;17.47;;;24.00;92.10;;;;;;3586688;39;20483;-57
2021/07/21 08:02:19;;;;;;;18.43;17.03;;;24.10;92.20;;;;;;3585562;39;20433;-57
2021/07/21 08:04:47;;;;;;;17.33;16.13;;;24.10;92.20;;;;;;3580066;39;20528;-57
2021/07/21 08:07:18;;;;;;;18.60;17.30;;;24.20;92.20;;;;;;3583149;39;20465;-58
2021/07/21 08:09:47;;;;;;;17.40;16.20;;;24.20;91.90;;;;;;3584417;39;20477;-56
2021/07/21 08:12:15;;;;;;;18.23;16.97;;;24.20;91.90;;;;;;3576960;39;20558;-55
2021/07/21 08:14:43;;;;;;;18.80;17.20;;;24.20;91.40;;;;;;3579382;39;20480;-57
2021/07/21 08:17:11;;;;;;;18.23;17.00;;;24.20;91.50;;;;;;3585196;39;20479;-58
2021/07/21 08:19:40;;;;;;;17.33;16.13;;;24.20;91.30;;;;;;3583705;39;21184;-55
2021/07/21 08:22:07;;;;;;;18.93;17.70;;;24.20;91.00;;;;;;3572972;40;20460;-56
2021/07/21 08:24:34;;;;;;;18.40;17.10;;;24.20;91.20;;;;;;3574730;40;20481;-56
2021/07/21 08:27:02;;;;;;;16.77;15.57;;;24.30;91.30;;;;;;3583129;39;20469;-57
2021/07/21 08:29:30;;;;;;;17.70;16.50;;;24.30;91.20;;;;;;3584872;39;20472;-56
2021/07/21 08:31:58;;;;;;;17.93;16.70;;;24.30;91.20;;;;;;3576138;40;20536;-57
2021/07/21 08:34:25;;;;;;;17.77;16.47;;;24.30;91.20;;;;;;3575096;40;20550;-58
2021/07/21 08:36:55;;;;;;;16.60;15.60;;;24.30;91.20;;;;;;3580353;39;20505;-58
2021/07/21 08:39:26;;;;;;;19.20;17.83;;;24.30;91.10;;;;;;3577795;40;20468;-57
2021/07/21 08:41:54;;;;;;;17.33;16.20;;;24.40;91.00;;;;;;3583334;39;21162;-54
2021/07/21 08:44:22;;;;;;;17.90;16.80;;;24.40;91.10;;;;;;3586931;39;20471;-56
2021/07/21 08:46:49;;;;;;;17.90;16.70;;;24.40;91.10;;;;;;3580224;39;20461;-53
2021/07/21 08:49:18;;;;;;;17.17;15.87;;;24.40;91.20;;;;;;3575778;39;20461;-56
2021/07/21 08:51:50;;;;;;;18.20;17.00;;;24.40;91.00;;;;;;3587518;39;20557;-57
2021/07/21 08:54:19;;;;;;;17.77;16.47;;;24.40;91.00;;;;;;3584274;39;20496;-54
2021/07/21 08:56:48;;;;;;;16.70;15.50;;;24.40;91.00;;;;;;3582199;39;20477;-55
2021/07/21 08:59:16;;;;;;;18.53;17.23;;;24.40;91.00;;;;;;3577099;39;20557;-55
2021/07/21 09:01:45;;;;;;;18.40;17.20;;;24.40;90.90;;;;;;3588792;39;20456;-55
2021/07/21 09:04:12;;;;;;;18.00;16.70;;;24.40;91.00;;;;;;3586223;39;20472;-55
2021/07/21 09:06:42;;;;;;;17.80;16.50;;;24.40;91.00;;;;;;3584233;39;20472;-55
2021/07/21 09:09:10;;;;;;;17.37;16.07;;;24.40;91.00;;;;;;3584491;39;20453;-56
2021/07/21 09:11:40;;;;;;;17.97;16.77;;;24.40;91.10;;;;;;3586670;39;20484;-55
2021/07/21 09:14:14;;;;;;;18.10;16.90;;;24.40;91.10;;;;;;3575472;39;20640;-56
2021/07/21 09:16:42;;;;;;;17.37;16.20;;;24.40;91.10;;;;;;3554667;40;20540;-56
2021/07/21 09:19:13;;;;;;;16.87;15.50;;;24.40;91.10;;;;;;3555756;40;20443;-56
2021/07/21 09:21:43;;;;;;;16.13;15.03;;;24.40;90.90;;;;;;3559088;40;20509;-52
2021/07/21 09:24:21;;;;;;;18.00;16.53;;;24.40;90.90;;;;;;3555537;40;20466;-56
2021/07/21 09:26:52;;;;;;;16.80;15.60;;;24.50;91.10;;;;;;3562761;40;20497;-57
2021/07/21 09:29:26;;;;;;;17.67;16.33;;;24.50;91.10;;;;;;3566783;40;20454;-55
2021/07/21 09:31:59;;;;;;;16.07;15.00;;;24.40;91.00;;;;;;3566312;40;20451;-56
2021/07/21 09:34:28;;;;;;;17.67;16.47;;;24.50;91.00;;;;;;3565775;40;20732;-57
2021/07/21 09:37:08;;;;;;;18.10;16.77;;;24.50;91.00;;;;;;3564499;40;20462;-57
2021/07/21 09:39:39;;;;;;;19.07;17.57;;;24.50;91.10;;;;;;3559808;39;20512;-57
2021/07/21 09:42:12;;;;;;;17.80;16.50;;;24.50;91.00;;;;;;3583807;39;20461;-57
2021/07/21 09:44:42;;;;;;;17.30;15.90;;;24.50;91.10;;;;;;3576803;39;20477;-54
2021/07/21 09:47:15;;;;;;;16.83;15.73;;;24.40;90.20;;;;;;3584113;39;20859;-57
2021/07/21 09:49:46;;;;;;;17.43;16.17;;;24.40;90.50;;;;;;3585487;39;21293;-56
2021/07/21 09:52:22;;;;;;;17.17;15.90;;;24.50;90.60;;;;;;3578213;40;20454;-56
2021/07/21 09:55:09;;;;;;;18.03;16.63;;;24.50;90.70;;;;;;3576137;40;21225;-57
2021/07/21 09:57:40;;;;;;;18.50;17.30;;;24.50;90.70;;;;;;3587748;39;20461;-57
2021/07/21 10:00:22;;;;;;;18.70;17.40;;;24.50;90.80;;;;;;3583150;39;20705;-56
2021/07/21 10:02:50;;;;;;;19.40;18.00;;;24.50;90.70;;;;;;3570734;40;20607;-55
2021/07/21 10:05:17;;;;;;;18.40;17.00;;;24.50;90.70;;;;;;3570392;40;20550;-56
2021/07/21 10:08:02;;;;;;;19.50;18.20;;;24.50;90.40;;;;;;3574281;39;20708;-57
2021/07/21 10:10:31;;;;;;;18.97;17.67;;;24.50;90.50;;;;;;3574755;39;20736;-57
2021/07/21 10:13:03;;;;;;;19.83;18.27;;;24.50;90.60;;;;;;3577772;39;20476;-57
2021/07/21 10:15:30;;;;;;;20.00;18.60;;;24.50;90.60;;;;;;3576983;39;20550;-56
2021/07/21 10:18:08;;;;;;;20.67;19.17;;;24.50;90.60;;;;;;3583604;39;20892;-57
2021/07/21 10:20:37;;;;;;;19.37;18.13;;;24.50;90.60;;;;;;3576046;40;20473;-54
2021/07/21 10:23:07;;;;;;;20.17;18.67;;;24.60;90.70;;;;;;3584603;39;20467;-56
2021/07/21 10:25:34;;;;;;;20.00;18.50;;;24.50;90.50;;;;;;3588526;39;20460;-54
2021/07/21 10:28:05;;;;;;;20.40;18.83;;;24.50;90.50;;;;;;3585255;39;20459;-57
2021/07/21 10:30:36;;;;;;;20.30;18.80;;;24.50;90.60;;;;;;3578957;39;20492;-56
2021/07/21 10:33:05;;;;;;;20.60;19.10;;;24.50;90.50;;;;;;3588008;39;20513;-57
2021/07/21 10:35:33;;;;;;;19.83;18.43;;;24.50;90.50;;;;;;3597669;39;20466;-56
2021/07/21 10:38:02;;;;;;;21.10;19.50;;;24.60;90.50;;;;;;3590238;39;20801;-55
2021/07/21 10:40:33;;;;;;;19.20;17.60;;;24.60;90.50;;;;;;3585157;39;20899;-57
2021/07/21 10:43:04;;;;;;;18.20;16.70;;;24.60;90.50;;;;;;3586412;39;20475;-57
2021/07/21 10:45:34;;;;;;;20.00;18.60;;;24.50;90.00;;;;;;3594945;39;20919;-58
2021/07/21 10:48:09;;;;;;;19.90;18.10;;;24.60;90.20;;;;;;3578952;39;20695;-57
2021/07/21 10:50:48;;;;;;;19.60;18.13;;;24.50;88.90;;;;;;3581050;39;20460;-54
2021/07/21 10:59:22;;;;;;;19.37;18.07;;;24.60;89.60;;;;;;3579157;39;21856;-56
2021/07/21 11:01:51;;;;;;;20.13;18.43;;;24.60;89.60;;;;;;3584020;39;20474;-57
2021/07/21 11:04:22;;;;;;;19.43;18.10;;;24.60;89.50;;;;;;3583697;39;20792;-57
2021/07/21 11:06:51;;;;;;;19.80;18.40;;;24.60;89.60;;;;;;3587827;39;20463;-57
2021/07/21 11:09:24;;;;;;;19.30;18.10;;;24.60;89.70;;;;;;3578995;39;20978;-55
2021/07/21 11:11:57;;;;;;;20.77;19.00;;;24.60;89.70;;;;;;3600198;39;20611;-55
2021/07/21 11:14:27;;;;;;;19.60;18.30;;;24.60;89.80;;;;;;3596949;39;20471;-55
2021/07/21 11:17:10;;;;;;;21.73;20.23;;;24.60;90.00;;;;;;3579433;39;20495;-56
2021/07/21 11:19:45;;;;;;;22.20;20.53;;;24.60;90.10;;;;;;3598047;39;20496;-54
2021/07/21 11:22:29;;;;;;;21.20;19.60;;;24.60;90.20;;;;;;3598638;39;20590;-58
2021/07/21 11:25:14;;;;;;;21.83;20.33;;;24.60;90.20;;;;;;3600322;39;20945;-54
2021/07/21 11:27:45;;;;;;;22.07;20.50;;;24.60;90.00;;;;;;3594124;39;20471;-56
2021/07/21 11:30:50;;;;;;;22.57;20.50;;;24.60;90.00;;;;;;3588979;39;20437;-53
2021/07/21 11:34:02;;;;;;;20.77;19.37;;;24.60;90.10;;;;;;3580810;40;20489;-55
2021/07/21 11:36:59;;;;;;;20.50;19.07;;;24.60;90.00;;;;;;3581029;39;20465;-56
2021/07/21 11:39:41;;;;;;;20.53;19.13;;;24.60;90.10;;;;;;3576411;39;20883;-53
2021/07/21 11:42:12;;;;;;;21.10;19.60;;;24.60;90.00;;;;;;3588814;39;20468;-54
2021/07/21 11:44:41;;;;;;;20.73;19.20;;;24.60;90.10;;;;;;3579612;39;20563;-57
2021/07/21 11:47:17;;;;;;;17.93;16.73;;;24.60;90.10;;;;;;3589202;39;20464;-57
2021/07/21 11:49:51;;;;;;;19.77;18.33;;;24.50;89.50;;;;;;3576559;40;20539;-56
2021/07/21 11:52:21;;;;;;;19.03;17.70;;;24.60;89.80;;;;;;3576061;39;20519;-55
2021/07/21 11:54:51;;;;;;;19.70;18.30;;;24.60;90.00;;;;;;3578297;39;20472;-57
2021/07/21 11:57:25;;;;;;;20.67;19.10;;;24.60;90.00;;;;;;3584898;39;20501;-56
2021/07/21 11:59:55;;;;;;;20.27;18.87;;;24.60;90.00;;;;;;3571185;40;20497;-53
2021/07/21 12:02:24;;;;;;;20.07;18.77;;;24.60;90.00;;;;;;3582269;39;20485;-57
2021/07/21 12:04:59;;;;;;;21.67;20.20;;;24.60;89.50;;;;;;3576213;39;20487;-58
2021/07/21 12:07:35;;;;;;;20.93;19.20;;;24.60;89.70;;;;;;3573595;39;20902;-56
2021/07/21 12:10:15;;;;;;;20.60;19.30;;;24.60;90.00;;;;;;3588463;39;20560;-57
2021/07/21 12:12:43;;;;;;;19.63;18.33;;;24.60;90.00;;;;;;3594698;39;20487;-55
2021/07/21 12:15:12;;;;;;;21.17;19.67;;;24.60;90.00;;;;;;3578463;39;20476;-58
2021/07/21 12:17:40;;;;;;;21.00;19.47;;;24.60;90.00;;;;;;3565659;40;20474;-58
2021/07/21 12:20:10;;;;;;;20.83;19.47;;;24.60;90.00;;;;;;3565819;40;20532;-54
2021/07/21 12:22:40;;;;;;;22.53;20.73;;;24.60;90.10;;;;;;3565042;40;20536;-56
2021/07/21 12:25:10;;;;;;;21.57;19.87;;;24.60;90.10;;;;;;3568366;40;20714;-57
2021/07/21 12:27:40;;;;;;;20.10;18.70;;;24.60;90.10;;;;;;3566493;40;20459;-57
2021/07/21 12:30:11;;;;;;;21.67;20.27;;;24.60;90.10;;;;;;3565214;40;20479;-57
2021/07/21 12:32:43;;;;;;;19.60;18.40;;;24.60;90.10;;;;;;3564056;40;20462;-56
2021/07/21 12:35:13;;;;;;;21.37;19.87;;;24.60;90.10;;;;;;3567658;40;20469;-54
2021/07/21 12:37:45;;;;;;;21.73;20.33;;;24.60;90.20;;;;;;3560882;40;20502;-56
2021/07/21 12:40:15;;;;;;;19.97;18.50;;;24.60;90.20;;;;;;3557715;40;20536;-55
2021/07/21 12:42:47;;;;;;;21.87;20.17;;;24.60;90.20;;;;;;3556611;40;20481;-57
2021/07/21 12:45:16;;;;;;;22.87;20.97;;;24.60;90.20;;;;;;3568574;40;20461;-56
2021/07/21 12:47:48;;;;;;;21.27;19.87;;;24.60;90.20;;;;;;3567179;40;20465;-57
2021/07/21 12:50:19;;;;;;;20.77;19.27;;;24.60;90.20;;;;;;3568021;40;20493;-57
2021/07/21 12:52:53;;;;;;;20.97;19.37;;;24.60;90.10;;;;;;3567888;40;20458;-57
2021/07/21 12:55:35;;;;;;;20.27;18.97;;;24.60;90.00;;;;;;3566653;39;20857;-58
2021/07/21 12:58:04;;;;;;;21.17;19.67;;;24.60;90.00;;;;;;3579144;39;20559;-57
2021/07/21 13:00:32;;;;;;;20.80;19.17;;;24.60;90.00;;;;;;3585685;39;20480;-57
2021/07/21 13:03:03;;;;;;;19.83;18.40;;;24.60;90.00;;;;;;3582294;39;20499;-57
2021/07/21 13:05:33;;;;;;;19.93;18.47;;;24.60;90.00;;;;;;3574296;39;20523;-57
2021/07/21 13:08:05;;;;;;;20.37;18.80;;;24.60;90.00;;;;;;3583672;39;20497;-56